AirNav   Bose Proflight Series 2 Wireless Aviation Headset
 
 777 users online  

2PA9 Wilson Heliport
Lansdale, Pennsylvania, USA

GOING TO LANSDALE?


FAA INFORMATION EFFECTIVE 07 NOVEMBER 2019

Location

FAA Identifier: 2PA9
Lat/Long: 40-12-00.3840N 075-17-58.6370W
40-12.006400N 075-17.977283W
40.2001067,-75.2996214
(estimated)
Elevation: 460 ft. / 140 m (estimated)
Variation: 11W (1985)
From city: 3 miles N of LANSDALE, PA
Time zone: UTC -5 (UTC -4 during Daylight Saving Time)
Zip code: 19446

Heliport Operations

Heliport use: Private use. Permission required prior to landing
Activation date: 03/1961
Control tower: no
ARTCC: NEW YORK CENTER
FSS: WILLIAMSPORT FLIGHT SERVICE STATION
Attendance: UNATNDD
Wind indicator: yes
Segmented circle: no

Heliport Communications

WX AWOS-3 at LOM (4 nm SE): 118.925 (215-646-1068)
WX AWOS-3 at CKZ (11 nm N): 126.325 (215-257-7291)
WX ASOS at DYL (11 nm NE): 118.875 (215-345-0392)
WX ASOS at PTW (12 nm W): 119.425 (610-495-0823)
WX AWOS-3 at UKT (15 nm N): 119.475 (215-538-7610)
WX ASOS at PNE (15 nm SE): PHONE 215-677-0146
WX AWOS-3T at OQN (18 nm SW): 121.4 ((610) 692-6190)
WX ASOS at PHL (20 nm S): PHONE 215-492-9617

Nearby radio navigation aids

VOR radial/distance  VOR name  Freq  Var
PTWr105/12.0POTTSTOWN VORTAC116.5009W
ARDr270/18.2YARDLEY VOR/DME108.2010W
MXEr054/24.0MODENA VORTAC113.2009W
ETXr151/28.8EAST TEXAS VOR/DME110.2009W
FJCr177/32.4ALLENTOWN VORTAC117.5010W
OODr010/33.8WOODSTOWN VORTAC112.8010W
GXUr302/34.2MC GUIRE VORTAC110.6012W
SBJr238/34.3SOLBERG VOR/DME112.9010W
DQOr034/34.4DUPONT VORTAC114.0010W
RBVr280/36.9ROBBINSVILLE VORTAC113.8010W

 
NDB name  Hdg/Dist  Freq  Var  ID
AMBLER004/4.527512WING .. -. --.

Heliport Services

Airframe service: NONE
Powerplant service: NONE

Runway Information

Helipad H1

Dimensions: 200 x 400 ft. / 61 x 122 m
Surface: turf, in fair condition
Latitude: 40-12.006400N
Longitude: 075-17.977283W
Elevation: 460.0 ft.
Traffic pattern: leftleft
Markings: none, in fair condition

Heliport Ownership and Management from official FAA records

Ownership: Privately-owned
Owner: A. JAMES WILSON
2125 BETHEL ROAD
LANSDALE, PA 19446
Phone 215-699-3816
Manager: A. JAMES WILSON
2125 BETHEL ROAD
LANSDALE, PA 19446
Phone 215-699-3816

Heliport Operational Statistics

Aircraft based on the field: 1
Helicopters: 1
    

Additional Remarks

FOR CD CTC PHILADELPHIA APCH AT 800-354-9884.

Instrument Procedures

There are no published instrument procedures at 2PA9.

Some nearby airports with instrument procedures:

KLOM - Wings Field Airport (4 nm SE)
N10 - Perkiomen Valley Airport (6 nm W)
KCKZ - Pennridge Airport (11 nm N)
KDYL - Doylestown Airport (11 nm NE)
KPTW - Heritage Field Airport (12 nm W)
KUKT - Quakertown Airport (15 nm N)
KPNE - Northeast Philadelphia Airport (15 nm SE)
N47 - Pottstown Municipal Airport (17 nm W)
KOQN - Brandywine Regional Airport (18 nm SW)
KPHL - Philadelphia International Airport (20 nm S)
 
Loc | Ops | Rwys | IFR | FBO | Links
Com | Nav | Svcs | Stats | Notes
Area around 2PA9 (Wilson Heliport)
 
Road maps at: MapQuest Bing Google
 
Aerial photo
No photo
 
Sectional chart

 
Airport distance calculator
Flying to Wilson Heliport? Find the distance to fly.

From to 2PA9

Sunrise and sunset
Times for 15-Nov-2019
 Local
(UTC-5)
 Zulu
(UTC)
Morning civil twilight06:1911:19
Sunrise06:4811:48
Sunset16:4421:44
Evening civil twilight17:1322:13

Current date and time
Zulu (UTC)  16-Nov-2019 02:04:42
Local (UTC-5)  15-Nov-2019 21:04:42
 
METAR
KLOM 
4nm SE 
160155Z AUTO 00000KT 10SM CLR 02/M03 A3021 RMK AO2 T00231029
KCKZ 
11nm N 
160155Z AUTO 35003KT 10SM CLR 01/M05 A3022 RMK AO2
KDYL 
12nm NE 
160154Z AUTO 00000KT 10SM CLR 04/M05 A3020 RMK AO2 SLP235 T00441050
KPTW 
12nm W 
160154Z AUTO 31003KT 8SM CLR 01/M05 A3023 RMK AO2 SLP237 T00111050
KUKT 
15nm N 
160155Z AUTO 31004KT 10SM CLR 00/M05 A3022 RMK A01
KPNE 
15nm SE 
160154Z 31004KT 10SM CLR 07/M04 A3022 RMK AO2 SLP233 T00671044
KOQN 
18nm SW 
160155Z AUTO 00000KT 10SM 05/M03 A3021 RMK AO2
TAF
KPNE 
15nm SE 
151739Z 1518/1618 30012KT P6SM SCT250 FM152200 29008KT P6SM SCT250 FM160200 33005KT P6SM SCT250 FM160500 36008KT P6SM FEW250 FM161000 02012KT P6SM FEW250 FM161400 04015KT P6SM FEW250
NOTAMs
Click for the latest NOTAMs
NOTAMs are issued by the DoD/FAA and will open in a separate window not controlled by AirNav.

 

 
 

Would you like to see your business listed on this page?

 If your business provides an interesting product or service to pilots, flight crews, aircraft, or users of the Wilson Heliport, you should consider listing it here.  To start the listing process, click on the button below
 
Add a business
 

Other Pages about Wilson Heliport

Update a link
 
Copyright © AirNav, LLC. All rights reserved. Privacy Policy  Contact